Terminal Aerodrome Forecast
Issued by NWS Wilmington, OH

Current Version | Previous Version | Text Only | Print | Product List | Glossary Off
Versions: 1 2 3 4 5 6 7 8 9 10 11 12 13 14 15 16 17 18 19

000
FTUS41 KILN 260200 AAA
TAFILN
TAF AMD
KILN 260207Z 2602/2624 02006KT 2SM -RA BR BKN004 OVC016
      TEMPO 2603/2605 01011G21KT 1SM -SNRA OVC005
     FM260500 02014G22KT 1SM -SN OVC004
     FM261100 34011G19KT P6SM OVC010
     FM261400 35013KT P6SM OVC012=

USA.gov is the U.S. government's official web portal to all federal, state and local government web resources and services.